Terminal Aerodrome Forecast
Issued by NWS Wilmington, OH

Current Version | Previous Version | Graphics & Text | Print | Product List | Glossary On
Versions: 1 2 3 4 5 6 7 8 9 10 11 12 13 14 15 16 17 18 19 20 21 22 23 24 25 26 27 28 29 30
000
FTUS41 KILN 150500 AAA
TAFDAY
TAF AMD
KDAY 150531Z 1506/1606 20004KT P6SM OVC020
     FM150800 19004KT 5SM BR OVC015
     FM151600 15009KT 6SM HZ OVC015
     FM152200 15009KT P6SM SCT025 OVC250
     FM160000 15008KT P6SM -RA OVC025
     FM160400 15008KT P6SM VCSH OVC015=

USA.gov is the U.S. government's official web portal to all federal, state and local government web resources and services.